Time,TemperatureF,DewpointF,PressureIn,WindDirection,WindDirectionDegrees,WindSpeedMPH,WindSpeedGustMPH,Humidity,HourlyPrecipIn,Conditions,Clouds,dailyrainin,SolarRadiationWatts/m^2,SoftwareType,DateUTC
2013-02-22 00:06:00,21.7,13.8,30.32,East,84,2.0,6.0,71,0.00,,,0.00,0.0,meteohub,2013-02-22 06:06:00,
2013-02-22 00:12:00,21.7,14.2,30.32,NE,35,4.0,6.0,72,0.00,,,0.00,0.0,meteohub,2013-02-22 06:12:00,
2013-02-22 00:18:00,21.7,14.2,30.31,NE,46,4.0,6.0,72,0.00,,,0.00,0.0,meteohub,2013-02-22 06:18:00,
2013-02-22 00:24:00,21.7,14.2,30.30,ENE,69,1.0,6.0,72,0.00,,,0.00,0.0,meteohub,2013-02-22 06:24:00,
2013-02-22 00:30:00,21.7,14.2,30.30,NE,52,2.0,6.0,72,0.00,,,0.00,0.0,meteohub,2013-02-22 06:30:00,
2013-02-22 00:37:00,21.7,14.4,30.30,NE,45,4.0,6.0,73,0.00,,,0.00,0.0,meteohub,2013-02-22 06:37:00,
2013-02-22 00:43:00,21.7,14.4,30.28,NNE,30,5.0,10.0,73,0.00,,,0.00,0.0,meteohub,2013-02-22 06:43:00,
2013-02-22 00:49:00,21.7,14.7,30.28,NE,44,4.0,10.0,74,0.00,,,0.00,0.0,meteohub,2013-02-22 06:49:00,
2013-02-22 00:55:00,21.9,14.5,30.27,NE,36,2.0,10.0,73,0.00,,,0.00,0.0,meteohub,2013-02-22 06:55:00,
2013-02-22 01:01:00,21.9,14.9,30.27,NE,46,4.0,9.0,74,0.00,,,0.00,0.0,meteohub,2013-02-22 07:01:00,
2013-02-22 01:08:00,21.9,14.5,30.27,NE,39,4.0,9.0,73,0.00,,,0.00,0.0,meteohub,2013-02-22 07:08:00,
2013-02-22 01:14:00,21.9,14.5,30.27,NNE,15,3.0,9.0,73,0.00,,,0.00,0.0,meteohub,2013-02-22 07:14:00,
2013-02-22 01:20:00,21.7,15.3,30.27,ENE,61,3.0,11.0,76,0.00,,,0.00,0.0,meteohub,2013-02-22 07:20:00,
2013-02-22 01:26:00,21.2,16.0,30.26,NNE,21,5.0,11.0,80,0.00,,,0.00,0.0,meteohub,2013-02-22 07:26:00,
2013-02-22 01:32:00,20.8,16.5,30.26,NE,45,3.0,9.0,83,0.00,,,0.00,0.0,meteohub,2013-02-22 07:32:00,
2013-02-22 01:38:00,20.7,16.9,30.25,NNE,33,3.0,9.0,85,0.00,,,0.00,0.0,meteohub,2013-02-22 07:38:00,
2013-02-22 01:45:00,20.5,16.9,30.25,NE,41,4.0,10.0,86,0.00,,,0.00,0.0,meteohub,2013-02-22 07:45:00,
2013-02-22 01:51:00,20.5,16.9,30.25,NNE,21,3.0,8.0,86,0.00,,,0.00,0.0,meteohub,2013-02-22 07:51:00,
2013-02-22 01:57:00,20.5,16.9,30.24,NE,35,2.0,8.0,86,0.00,,,0.00,0.0,meteohub,2013-02-22 07:57:00,
2013-02-22 02:03:00,20.3,17.1,30.23,NE,34,3.0,8.0,87,0.00,,,0.00,0.0,meteohub,2013-02-22 08:03:00,
2013-02-22 02:09:00,20.1,16.9,30.23,NNE,30,2.0,8.0,87,0.00,,,0.00,0.0,meteohub,2013-02-22 08:09:00,
2013-02-22 02:16:00,19.9,16.7,30.23,NNE,22,1.0,6.0,87,0.00,,,0.00,0.0,meteohub,2013-02-22 08:16:00,
2013-02-22 02:22:00,19.9,16.7,30.23,NNE,22,2.0,6.0,87,0.00,,,0.00,0.0,meteohub,2013-02-22 08:22:00,
2013-02-22 02:28:00,19.9,16.7,30.22,NE,34,2.0,4.0,87,0.00,,,0.00,0.0,meteohub,2013-02-22 08:28:00,
2013-02-22 02:34:00,19.9,16.7,30.22,NNE,31,2.0,4.0,87,0.00,,,0.00,0.0,meteohub,2013-02-22 08:34:00,
2013-02-22 02:40:00,19.9,16.9,30.22,NNE,26,1.0,5.0,88,0.00,,,0.00,0.0,meteohub,2013-02-22 08:40:00,
2013-02-22 02:46:00,19.9,16.9,30.21,NNE,27,1.0,4.0,88,0.00,,,0.00,0.0,meteohub,2013-02-22 08:46:00,
2013-02-22 02:53:00,19.8,17.1,30.21,NNE,26,1.0,4.0,89,0.00,,,0.00,0.0,meteohub,2013-02-22 08:53:00,
2013-02-22 02:59:00,19.8,17.1,30.21,NE,45,2.0,3.0,89,0.00,,,0.00,0.0,meteohub,2013-02-22 08:59:00,
2013-02-22 03:05:00,19.8,17.1,30.20,NE,42,1.0,3.0,89,0.00,,,0.00,0.0,meteohub,2013-02-22 09:05:00,
2013-02-22 03:11:00,19.8,17.2,30.19,NNW,347,1.0,5.0,90,0.00,,,0.00,0.0,meteohub,2013-02-22 09:11:00,
2013-02-22 03:17:00,19.9,17.4,30.21,North,0,0.0,5.0,90,0.00,,,0.00,0.0,meteohub,2013-02-22 09:17:00,
2013-02-22 03:22:00,19.9,17.4,30.21,North,0,3.0,5.0,90,0.00,,,0.00,0.0,meteohub,2013-02-22 09:22:00,
2013-02-22 03:28:00,20.1,18.0,30.20,North,0,0.0,5.0,91,0.00,,,0.00,0.0,meteohub,2013-02-22 09:28:00,
2013-02-22 03:34:00,20.1,18.0,30.20,North,0,2.0,4.0,91,0.00,,,0.00,0.0,meteohub,2013-02-22 09:34:00,
2013-02-22 03:40:00,20.3,18.1,30.20,NE,36,1.0,6.0,91,0.00,,,0.00,0.0,meteohub,2013-02-22 09:40:00,
2013-02-22 03:46:00,20.5,18.3,30.20,NE,37,2.0,6.0,91,0.00,,,0.00,0.0,meteohub,2013-02-22 09:46:00,
2013-02-22 03:52:00,20.5,18.3,30.19,NNE,31,3.0,6.0,91,0.00,,,0.00,0.0,meteohub,2013-02-22 09:52:00,
2013-02-22 03:59:00,20.7,18.5,30.19,NNE,32,3.0,6.0,91,0.00,,,0.00,0.0,meteohub,2013-02-22 09:59:00,
2013-02-22 04:05:00,20.7,18.5,30.18,NNE,28,1.0,7.0,91,0.00,,,0.00,0.0,meteohub,2013-02-22 10:05:00,
2013-02-22 04:11:00,20.7,18.7,30.18,NNE,24,3.0,7.0,92,0.00,,,0.00,0.0,meteohub,2013-02-22 10:11:00,
2013-02-22 04:17:00,20.7,18.7,30.18,NE,37,2.0,7.0,92,0.00,,,0.00,0.0,meteohub,2013-02-22 10:17:00,
2013-02-22 04:23:00,20.7,18.7,30.17,NE,40,0.0,7.0,92,0.00,,,0.00,0.0,meteohub,2013-02-22 10:23:00,
2013-02-22 04:30:00,20.7,18.7,30.17,NNW,347,1.0,8.0,92,0.00,,,0.00,0.0,meteohub,2013-02-22 10:30:00,
2013-02-22 04:36:00,20.7,18.7,30.17,NNE,23,2.0,8.0,92,0.00,,,0.00,0.0,meteohub,2013-02-22 10:36:00,
2013-02-22 04:42:00,20.7,18.7,30.17,North,10,2.0,7.0,92,0.00,,,0.00,0.0,meteohub,2013-02-22 10:42:00,
2013-02-22 04:48:00,20.7,18.7,30.17,NNE,25,3.0,6.0,92,0.00,,,0.00,0.0,meteohub,2013-02-22 10:48:00,
2013-02-22 04:54:00,20.7,18.7,30.17,North,9,2.0,6.0,92,0.00,,,0.00,0.0,meteohub,2013-02-22 10:54:00,
2013-02-22 05:01:00,20.7,18.7,30.16,NNW,335,3.0,6.0,92,0.00,,,0.00,0.0,meteohub,2013-02-22 11:01:00,
2013-02-22 05:07:00,20.7,18.7,30.16,NE,36,3.0,6.0,92,0.00,,,0.00,0.0,meteohub,2013-02-22 11:07:00,
2013-02-22 05:13:00,20.7,18.7,30.16,North,355,4.0,9.0,92,0.00,,,0.00,0.0,meteohub,2013-02-22 11:13:00,
2013-02-22 05:19:00,20.7,18.7,30.16,NE,36,1.0,9.0,92,0.00,,,0.00,0.0,meteohub,2013-02-22 11:19:00,
2013-02-22 05:25:00,20.7,18.7,30.16,North,9,1.0,9.0,92,0.00,,,0.00,0.0,meteohub,2013-02-22 11:25:00,
2013-02-22 05:32:00,20.7,18.7,30.16,NE,41,2.0,9.0,92,0.00,,,0.00,0.0,meteohub,2013-02-22 11:32:00,
2013-02-22 05:38:00,20.7,18.7,30.16,NNE,28,2.0,9.0,92,0.00,,,0.00,0.0,meteohub,2013-02-22 11:38:00,
2013-02-22 05:44:00,20.7,18.7,30.16,NE,51,2.0,9.0,92,0.00,,,0.00,0.0,meteohub,2013-02-22 11:44:00,
2013-02-22 05:50:00,20.7,18.7,30.16,North,5,3.0,9.0,92,0.00,,,0.00,0.0,meteohub,2013-02-22 11:50:00,
2013-02-22 05:56:00,20.7,18.7,30.15,NNE,28,3.0,7.0,92,0.00,,,0.00,0.0,meteohub,2013-02-22 11:56:00,
2013-02-22 06:02:00,20.7,18.7,30.15,North,0,2.0,7.0,92,0.00,,,0.00,0.0,meteohub,2013-02-22 12:02:00,
2013-02-22 06:07:00,20.7,18.7,30.15,NE,43,5.0,7.0,92,0.00,,,0.00,0.0,meteohub,2013-02-22 12:07:00,
2013-02-22 06:13:00,20.7,18.7,30.15,NE,36,2.0,7.0,92,0.00,,,0.00,0.0,meteohub,2013-02-22 12:13:00,
2013-02-22 06:19:00,20.7,18.7,30.15,NNE,24,2.0,8.0,92,0.00,,,0.00,0.0,meteohub,2013-02-22 12:19:00,
2013-02-22 06:26:00,20.7,18.7,30.14,NNE,13,3.0,8.0,92,0.00,,,0.00,0.0,meteohub,2013-02-22 12:26:00,
2013-02-22 06:32:00,20.7,18.7,30.14,NE,39,2.0,8.0,92,0.00,,,0.00,0.0,meteohub,2013-02-22 12:32:00,
2013-02-22 06:38:00,20.7,18.5,30.14,NNW,327,2.0,8.0,91,0.00,,,0.00,0.0,meteohub,2013-02-22 12:38:00,
2013-02-22 06:44:00,20.7,18.5,30.15,NNE,29,1.0,9.0,91,0.00,,,0.00,0.0,meteohub,2013-02-22 12:44:00,
2013-02-22 06:51:00,20.7,18.5,30.14,NNE,24,2.0,9.0,91,0.00,,,0.00,0.0,meteohub,2013-02-22 12:51:00,
2013-02-22 06:57:00,20.7,18.5,30.14,North,349,3.0,9.0,91,0.00,,,0.00,0.0,meteohub,2013-02-22 12:57:00,
2013-02-22 07:03:00,20.7,18.5,30.14,NNE,27,3.0,9.0,91,0.00,,,0.00,0.0,meteohub,2013-02-22 13:03:00,
2013-02-22 07:09:00,20.7,18.5,30.14,North,0,3.0,7.0,91,0.00,,,0.00,5.0,meteohub,2013-02-22 13:09:00,
2013-02-22 07:16:00,20.7,18.5,30.14,NNE,28,1.0,7.0,91,0.00,,,0.00,5.0,meteohub,2013-02-22 13:16:00,
2013-02-22 07:22:00,20.7,18.5,30.14,NNE,31,2.0,7.0,91,0.00,,,0.00,5.0,meteohub,2013-02-22 13:22:00,
2013-02-22 07:28:00,20.7,18.5,30.14,NNE,26,3.0,7.0,91,0.00,,,0.00,7.0,meteohub,2013-02-22 13:28:00,
2013-02-22 07:34:00,20.7,18.5,30.14,NE,34,2.0,7.0,91,0.00,,,0.00,7.0,meteohub,2013-02-22 13:34:00,
2013-02-22 07:41:00,20.7,18.5,30.13,NE,38,3.0,7.0,91,0.00,,,0.00,9.0,meteohub,2013-02-22 13:41:00,
2013-02-22 07:47:00,20.7,18.5,30.13,NNE,19,3.0,7.0,91,0.00,,,0.00,12.0,meteohub,2013-02-22 13:47:00,
2013-02-22 07:53:00,20.8,18.7,30.13,NE,34,3.0,7.0,91,0.00,,,0.00,14.0,meteohub,2013-02-22 13:53:00,
2013-02-22 07:59:00,20.8,18.7,30.13,NNE,31,2.0,7.0,91,0.00,,,0.00,18.0,meteohub,2013-02-22 13:59:00,
2013-02-22 08:05:00,20.8,18.7,30.12,NNE,15,6.0,6.0,91,0.00,,,0.00,23.0,meteohub,2013-02-22 14:05:00,
2013-02-22 08:12:00,20.8,18.9,30.12,North,355,1.0,5.0,92,0.00,,,0.00,28.0,meteohub,2013-02-22 14:12:00,
2013-02-22 08:18:00,20.8,18.7,30.12,NNE,30,4.0,8.0,91,0.00,,,0.00,25.0,meteohub,2013-02-22 14:18:00,
2013-02-22 08:24:00,20.8,18.9,30.12,NE,47,2.0,8.0,92,0.00,,,0.00,21.0,meteohub,2013-02-22 14:24:00,
2013-02-22 08:30:00,21.0,19.0,30.12,NE,37,2.0,8.0,92,0.00,,,0.00,26.0,meteohub,2013-02-22 14:30:00,
2013-02-22 08:36:00,21.0,19.0,30.12,NE,43,2.0,8.0,92,0.00,,,0.00,28.0,meteohub,2013-02-22 14:36:00,
2013-02-22 08:43:00,21.2,19.2,30.12,NE,47,5.0,6.0,92,0.00,,,0.00,32.0,meteohub,2013-02-22 14:43:00,
2013-02-22 08:49:00,21.4,19.4,30.12,NNE,31,2.0,6.0,92,0.00,,,0.00,37.0,meteohub,2013-02-22 14:49:00,
2013-02-22 08:55:00,21.4,19.4,30.12,NNE,19,3.0,6.0,92,0.00,,,0.00,42.0,meteohub,2013-02-22 14:55:00,
2013-02-22 09:01:00,21.4,19.4,30.12,NNE,30,8.0,8.0,92,0.00,,,0.00,47.0,meteohub,2013-02-22 15:01:00,
2013-02-22 09:07:00,21.6,19.4,30.12,NNE,30,3.0,6.0,91,0.00,,,0.00,49.0,meteohub,2013-02-22 15:07:00,
2013-02-22 09:13:00,21.7,19.6,30.11,NNE,17,1.0,8.0,91,0.00,,,0.00,53.0,meteohub,2013-02-22 15:13:00,
2013-02-22 09:20:00,21.7,19.6,30.11,NE,36,2.0,9.0,91,0.00,,,0.00,62.0,meteohub,2013-02-22 15:20:00,
2013-02-22 09:26:00,21.9,19.8,30.11,NNE,21,4.0,9.0,91,0.00,,,0.00,63.0,meteohub,2013-02-22 15:26:00,
2013-02-22 09:32:00,21.9,19.8,30.11,NE,38,1.0,9.0,91,0.00,,,0.00,60.0,meteohub,2013-02-22 15:32:00,
2013-02-22 09:38:00,22.3,20.1,30.11,NNW,338,3.0,9.0,91,0.00,,,0.00,69.0,meteohub,2013-02-22 15:38:00,
2013-02-22 09:44:00,22.3,20.1,30.11,NE,35,2.0,6.0,91,0.00,,,0.00,77.0,meteohub,2013-02-22 15:44:00,
2013-02-22 09:51:00,22.6,20.5,30.11,North,355,5.0,7.0,91,0.00,,,0.00,79.0,meteohub,2013-02-22 15:51:00,
2013-02-22 09:57:00,22.8,20.7,30.10,NE,37,4.0,7.0,91,0.00,,,0.00,88.0,meteohub,2013-02-22 15:57:00,
2013-02-22 10:03:00,23.0,20.8,30.10,NE,45,1.0,6.0,91,0.00,,,0.00,84.0,meteohub,2013-02-22 16:03:00,
2013-02-22 10:09:00,23.2,20.7,30.10,NNW,344,2.0,6.0,90,0.00,,,0.00,88.0,meteohub,2013-02-22 16:09:00,
2013-02-22 10:15:00,23.4,20.8,30.10,ENE,57,3.0,6.0,90,0.00,,,0.00,98.0,meteohub,2013-02-22 16:15:00,
2013-02-22 10:21:00,23.5,21.0,30.10,North,9,2.0,6.0,90,0.00,,,0.00,113.0,meteohub,2013-02-22 16:21:00,
2013-02-22 10:28:00,23.7,21.0,30.10,NE,45,2.0,8.0,89,0.00,,,0.00,134.0,meteohub,2013-02-22 16:28:00,
2013-02-22 10:34:00,24.1,21.4,30.09,NE,42,3.0,8.0,89,0.00,,,0.00,130.0,meteohub,2013-02-22 16:34:00,
2013-02-22 10:40:00,24.3,21.6,30.09,NE,38,4.0,7.0,89,0.00,,,0.00,146.0,meteohub,2013-02-22 16:40:00,
2013-02-22 10:46:00,24.4,21.4,30.09,NE,40,1.0,7.0,88,0.00,,,0.00,155.0,meteohub,2013-02-22 16:46:00,
2013-02-22 10:52:00,25.0,22.3,30.09,NNW,346,3.0,7.0,89,0.00,,,0.03,139.0,meteohub,2013-02-22 16:52:00,
2013-02-22 10:59:00,25.2,22.1,30.09,NNE,31,3.0,8.0,88,0.04,,,0.03,163.0,meteohub,2013-02-22 16:59:00,
2013-02-22 11:05:00,25.3,22.1,30.09,NE,37,2.0,8.0,87,0.04,,,0.04,204.0,meteohub,2013-02-22 17:05:00,
2013-02-22 11:11:00,26.1,23.0,30.09,NE,40,4.0,8.0,88,0.05,,,0.04,151.0,meteohub,2013-02-22 17:11:00,
2013-02-22 11:17:00,25.9,22.3,30.09,NE,44,3.0,8.0,86,0.05,,,0.06,144.0,meteohub,2013-02-22 17:17:00,
2013-02-22 11:23:00,25.7,22.5,30.09,North,11,3.0,8.0,87,0.06,,,0.06,178.0,meteohub,2013-02-22 17:23:00,
2013-02-22 11:29:00,25.9,22.5,30.09,NE,55,1.0,8.0,87,0.06,,,0.06,181.0,meteohub,2013-02-22 17:29:00,
2013-02-22 11:36:00,26.1,22.1,30.09,NE,40,5.0,8.0,85,0.06,,,0.06,176.0,meteohub,2013-02-22 17:36:00,
2013-02-22 11:42:00,25.9,21.9,30.09,ENE,77,3.0,7.0,85,0.07,,,0.07,197.0,meteohub,2013-02-22 17:42:00,
2013-02-22 11:48:00,26.1,22.1,30.09,ENE,57,3.0,7.0,85,0.07,,,0.07,230.0,meteohub,2013-02-22 17:48:00,
2013-02-22 11:54:00,26.4,22.5,30.08,ENE,58,4.0,7.0,85,0.05,,,0.07,371.0,meteohub,2013-02-22 17:54:00,
2013-02-22 12:00:00,26.4,21.9,30.08,East,96,5.0,6.0,83,0.04,,,0.08,276.0,meteohub,2013-02-22 18:00:00,
2013-02-22 12:07:00,26.2,21.7,30.08,NE,41,2.0,6.0,83,0.04,,,0.08,355.0,meteohub,2013-02-22 18:07:00,
2013-02-22 12:13:00,26.4,22.3,30.07,NNE,30,2.0,6.0,84,0.04,,,0.08,374.0,meteohub,2013-02-22 18:13:00,
2013-02-22 12:19:00,26.4,22.3,30.07,NE,55,1.0,7.0,84,0.02,,,0.08,283.0,meteohub,2013-02-22 18:19:00,
2013-02-22 12:25:00,26.8,22.6,30.07,NE,44,0.0,7.0,84,0.02,,,0.08,315.0,meteohub,2013-02-22 18:25:00,
2013-02-22 12:31:00,27.0,22.5,30.07,ENE,60,2.0,7.0,83,0.02,,,0.08,315.0,meteohub,2013-02-22 18:31:00,
2013-02-22 12:38:00,27.1,22.6,30.06,NE,54,1.0,7.0,83,0.02,,,0.09,308.0,meteohub,2013-02-22 18:38:00,
2013-02-22 12:44:00,27.1,22.1,30.06,North,11,3.0,7.0,81,0.02,,,0.09,281.0,meteohub,2013-02-22 18:44:00,
2013-02-22 12:50:00,27.0,21.9,30.06,NNE,32,2.0,7.0,81,0.02,,,0.09,237.0,meteohub,2013-02-22 18:50:00,
2013-02-22 12:56:00,27.1,22.1,30.06,NNE,32,1.0,7.0,81,0.02,,,0.10,406.0,meteohub,2013-02-22 18:56:00,
2013-02-22 13:02:00,27.7,22.8,30.05,NE,36,2.0,4.0,82,0.02,,,0.10,566.0,meteohub,2013-02-22 19:02:00,
2013-02-22 13:09:00,27.9,22.3,30.05,NE,51,0.0,4.0,79,0.02,,,0.10,290.0,meteohub,2013-02-22 19:09:00,
2013-02-22 13:15:00,27.7,22.3,30.05,ENE,59,0.0,4.0,80,0.02,,,0.10,339.0,meteohub,2013-02-22 19:15:00,
2013-02-22 13:21:00,27.9,23.0,30.05,NE,51,1.0,5.0,82,0.02,,,0.10,315.0,meteohub,2013-02-22 19:21:00,
2013-02-22 13:27:00,27.9,22.5,30.04,North,350,1.0,5.0,80,0.02,,,0.10,330.0,meteohub,2013-02-22 19:27:00,
2013-02-22 13:33:00,27.9,22.5,30.04,NNE,32,3.0,5.0,80,0.01,,,0.10,264.0,meteohub,2013-02-22 19:33:00,
2013-02-22 13:40:00,27.9,22.5,30.04,NE,55,2.0,5.0,80,0.01,,,0.10,223.0,meteohub,2013-02-22 19:40:00,
2013-02-22 13:46:00,27.7,22.6,30.04,NNE,30,1.0,5.0,81,0.01,,,0.10,193.0,meteohub,2013-02-22 19:46:00,
2013-02-22 13:52:00,27.5,22.5,30.04,NNE,27,2.0,5.0,81,0.01,,,0.11,243.0,meteohub,2013-02-22 19:52:00,
2013-02-22 13:58:00,27.5,22.5,30.04,NNW,346,1.0,5.0,81,0.01,,,0.11,332.0,meteohub,2013-02-22 19:58:00,
2013-02-22 14:04:00,27.7,22.6,30.04,NE,40,3.0,5.0,81,0.01,,,0.11,274.0,meteohub,2013-02-22 20:04:00,
2013-02-22 14:10:00,27.7,22.6,30.04,NE,34,3.0,5.0,81,0.01,,,0.11,234.0,meteohub,2013-02-22 20:10:00,
2013-02-22 14:17:00,27.7,22.6,30.04,NNE,30,0.0,6.0,81,0.01,,,0.11,172.0,meteohub,2013-02-22 20:17:00,
2013-02-22 14:23:00,27.7,22.8,30.04,NNE,30,0.0,6.0,82,0.01,,,0.11,155.0,meteohub,2013-02-22 20:23:00,
2013-02-22 14:29:00,27.9,22.8,30.03,NNE,30,1.0,4.0,81,0.02,,,0.11,148.0,meteohub,2013-02-22 20:29:00,
2013-02-22 14:35:00,27.7,22.3,30.03,NNE,26,0.0,4.0,80,0.02,,,0.12,141.0,meteohub,2013-02-22 20:35:00,
2013-02-22 14:41:00,27.7,22.6,30.04,NNE,27,0.0,3.0,81,0.02,,,0.12,135.0,meteohub,2013-02-22 20:41:00,
2013-02-22 14:47:00,27.5,22.5,30.03,NNE,26,1.0,3.0,81,0.01,,,0.12,153.0,meteohub,2013-02-22 20:47:00,
2013-02-22 14:52:00,27.3,22.3,30.03,NNE,25,1.0,3.0,81,0.01,,,0.12,160.0,meteohub,2013-02-22 20:52:00,
2013-02-22 14:58:00,27.5,22.8,30.04,NNE,17,2.0,3.0,82,0.01,,,0.12,151.0,meteohub,2013-02-22 20:58:00,
2013-02-22 15:04:00,27.3,22.6,30.04,NNE,17,1.0,3.0,82,0.01,,,0.12,153.0,meteohub,2013-02-22 21:04:00,
2013-02-22 15:10:00,27.1,22.6,30.04,NNE,28,0.0,3.0,83,0.01,,,0.12,158.0,meteohub,2013-02-22 21:10:00,
2013-02-22 15:16:00,27.1,22.6,30.04,NNE,26,2.0,3.0,83,0.01,,,0.12,162.0,meteohub,2013-02-22 21:16:00,
2013-02-22 15:23:00,27.1,22.6,30.04,North,0,2.0,5.0,83,0.01,,,0.12,158.0,meteohub,2013-02-22 21:23:00,
2013-02-22 15:29:00,27.1,22.6,30.04,North,0,1.0,5.0,83,0.00,,,0.12,167.0,meteohub,2013-02-22 21:29:00,
2013-02-22 15:35:00,27.1,22.6,30.04,North,349,2.0,4.0,83,0.00,,,0.12,163.0,meteohub,2013-02-22 21:35:00,
2013-02-22 15:41:00,27.1,23.0,30.04,NNW,348,1.0,6.0,84,0.00,,,0.12,141.0,meteohub,2013-02-22 21:41:00,
2013-02-22 15:47:00,27.1,23.0,30.04,NNE,31,4.0,6.0,84,0.00,,,0.12,137.0,meteohub,2013-02-22 21:47:00,
2013-02-22 15:53:00,27.1,22.6,30.03,North,5,1.0,5.0,83,0.00,,,0.12,141.0,meteohub,2013-02-22 21:53:00,
2013-02-22 16:00:00,27.1,22.5,30.04,NNE,15,1.0,5.0,82,0.00,,,0.12,153.0,meteohub,2013-02-22 22:00:00,
2013-02-22 16:06:00,27.3,22.6,30.04,North,355,0.0,5.0,82,0.00,,,0.12,148.0,meteohub,2013-02-22 22:06:00,
2013-02-22 16:12:00,27.3,22.8,30.04,North,355,1.0,5.0,83,0.00,,,0.12,142.0,meteohub,2013-02-22 22:12:00,
2013-02-22 16:18:00,27.3,22.6,30.04,North,355,0.0,4.0,82,0.00,,,0.12,132.0,meteohub,2013-02-22 22:18:00,
2013-02-22 16:24:00,27.7,22.8,30.04,NNW,346,1.0,4.0,82,0.00,,,0.12,77.0,meteohub,2013-02-22 22:24:00,
2013-02-22 16:31:00,27.5,22.8,30.04,NNW,344,1.0,4.0,82,0.00,,,0.12,54.0,meteohub,2013-02-22 22:31:00,
2013-02-22 16:37:00,27.3,22.6,30.04,WNW,298,1.0,4.0,82,0.00,,,0.12,56.0,meteohub,2013-02-22 22:37:00,
2013-02-22 16:43:00,27.1,22.5,30.05,WNW,301,2.0,4.0,82,0.00,,,0.12,51.0,meteohub,2013-02-22 22:43:00,
2013-02-22 16:49:00,27.0,22.3,30.05,NNW,345,2.0,4.0,82,0.00,,,0.12,49.0,meteohub,2013-02-22 22:49:00,
2013-02-22 16:55:00,27.0,22.5,30.05,North,355,1.0,4.0,83,0.00,,,0.12,47.0,meteohub,2013-02-22 22:55:00,
2013-02-22 17:02:00,26.8,22.3,30.05,North,0,2.0,5.0,83,0.00,,,0.12,42.0,meteohub,2013-02-22 23:02:00,
2013-02-22 17:08:00,26.6,22.5,30.05,NNW,346,3.0,5.0,84,0.00,,,0.12,37.0,meteohub,2013-02-22 23:08:00,
2013-02-22 17:14:00,26.4,22.3,30.05,WNW,295,1.0,5.0,84,0.00,,,0.12,30.0,meteohub,2013-02-22 23:14:00,
2013-02-22 17:20:00,26.4,22.3,30.05,NW,313,2.0,5.0,84,0.00,,,0.12,23.0,meteohub,2013-02-22 23:20:00,
2013-02-22 17:26:00,26.2,22.3,30.06,NW,312,0.0,5.0,85,0.00,,,0.12,18.0,meteohub,2013-02-22 23:26:00,
2013-02-22 17:32:00,26.2,22.3,30.06,NW,313,1.0,3.0,85,0.00,,,0.12,14.0,meteohub,2013-02-22 23:32:00,
2013-02-22 17:37:00,26.2,22.3,30.06,WNW,302,0.0,3.0,85,0.00,,,0.12,11.0,meteohub,2013-02-22 23:37:00,
2013-02-22 17:43:00,26.1,22.1,30.06,NNW,338,2.0,5.0,85,0.00,,,0.12,7.0,meteohub,2013-02-22 23:43:00,
2013-02-22 17:49:00,26.1,22.5,30.06,NNW,338,0.0,5.0,86,0.00,,,0.12,5.0,meteohub,2013-02-22 23:49:00,
2013-02-22 17:55:00,26.1,22.5,30.06,NNW,338,0.0,5.0,86,0.00,,,0.12,0.0,meteohub,2013-02-22 23:55:00,
2013-02-22 18:01:00,25.9,22.5,30.06,NNW,336,1.0,4.0,87,0.00,,,0.12,0.0,meteohub,2013-02-23 00:01:00,
2013-02-22 18:08:00,25.9,22.5,30.06,NNW,337,2.0,4.0,87,0.00,,,0.12,0.0,meteohub,2013-02-23 00:08:00,
2013-02-22 18:14:00,25.9,22.5,30.06,NW,306,0.0,4.0,87,0.00,,,0.12,0.0,meteohub,2013-02-23 00:14:00,
2013-02-22 18:20:00,25.7,22.5,30.07,WNW,288,2.0,4.0,87,0.00,,,0.12,0.0,meteohub,2013-02-23 00:20:00,
2013-02-22 18:26:00,25.5,22.3,30.07,NW,320,0.0,4.0,87,0.00,,,0.12,0.0,meteohub,2013-02-23 00:26:00,
2013-02-22 18:32:00,25.5,22.3,30.06,NW,319,2.0,4.0,87,0.00,,,0.12,0.0,meteohub,2013-02-23 00:32:00,
2013-02-22 18:39:00,25.5,22.3,30.06,NNW,339,1.0,4.0,87,0.00,,,0.12,0.0,meteohub,2013-02-23 00:39:00,
2013-02-22 18:45:00,25.5,22.3,30.06,NNW,340,0.0,4.0,87,0.00,,,0.12,0.0,meteohub,2013-02-23 00:45:00,
2013-02-22 18:51:00,25.5,22.3,30.06,WNW,300,1.0,4.0,87,0.00,,,0.12,0.0,meteohub,2013-02-23 00:51:00,
2013-02-22 18:57:00,25.5,22.3,30.07,NNW,329,0.0,4.0,87,0.00,,,0.12,0.0,meteohub,2013-02-23 00:57:00,
2013-02-22 19:03:00,25.5,22.3,30.07,WNW,288,0.0,4.0,87,0.00,,,0.12,0.0,meteohub,2013-02-23 01:03:00,
2013-02-22 19:10:00,25.3,22.1,30.07,WNW,288,0.0,4.0,87,0.00,,,0.12,0.0,meteohub,2013-02-23 01:10:00,
2013-02-22 19:16:00,25.3,22.1,30.06,WNW,288,0.0,4.0,87,0.00,,,0.12,0.0,meteohub,2013-02-23 01:16:00,
2013-02-22 19:22:00,25.3,22.1,30.07,WNW,297,0.0,2.0,87,0.00,,,0.12,0.0,meteohub,2013-02-23 01:22:00,
2013-02-22 19:28:00,25.3,22.1,30.06,WNW,296,0.0,2.0,87,0.00,,,0.12,0.0,meteohub,2013-02-23 01:28:00,
2013-02-22 19:34:00,25.3,21.7,30.06,NW,318,2.0,4.0,86,0.00,,,0.12,0.0,meteohub,2013-02-23 01:34:00,
2013-02-22 19:41:00,25.3,21.7,30.06,NW,311,0.0,6.0,86,0.00,,,0.12,0.0,meteohub,2013-02-23 01:41:00,
2013-02-22 19:47:00,25.3,21.7,30.06,NW,305,1.0,6.0,86,0.00,,,0.12,0.0,meteohub,2013-02-23 01:47:00,
2013-02-22 19:53:00,25.3,21.7,30.06,WNW,282,3.0,5.0,86,0.00,,,0.12,0.0,meteohub,2013-02-23 01:53:00,
2013-02-22 19:59:00,25.3,21.7,30.06,WNW,283,0.0,5.0,86,0.00,,,0.12,0.0,meteohub,2013-02-23 01:59:00,
2013-02-22 20:05:00,25.3,21.7,30.06,WNW,298,0.0,4.0,86,0.00,,,0.12,0.0,meteohub,2013-02-23 02:05:00,
2013-02-22 20:12:00,25.3,21.7,30.05,WNW,298,0.0,4.0,86,0.00,,,0.12,0.0,meteohub,2013-02-23 02:12:00,
2013-02-22 20:17:00,25.2,21.6,30.05,WNW,298,2.0,5.0,86,0.00,,,0.12,0.0,meteohub,2013-02-23 02:17:00,
2013-02-22 20:22:00,25.2,21.6,30.05,WNW,290,0.0,5.0,86,0.00,,,0.12,0.0,meteohub,2013-02-23 02:22:00,
2013-02-22 20:28:00,25.2,21.6,30.05,NNW,329,1.0,5.0,86,0.00,,,0.12,0.0,meteohub,2013-02-23 02:28:00,
2013-02-22 20:34:00,25.2,21.6,30.06,NNW,338,1.0,5.0,86,0.00,,,0.12,0.0,meteohub,2013-02-23 02:34:00,
2013-02-22 20:40:00,25.2,21.6,30.06,NNW,333,2.0,4.0,86,0.00,,,0.12,0.0,meteohub,2013-02-23 02:40:00,
2013-02-22 20:47:00,25.2,21.6,30.05,NNW,338,0.0,4.0,86,0.00,,,0.12,0.0,meteohub,2013-02-23 02:47:00,
2013-02-22 20:53:00,25.0,21.4,30.05,NNW,339,2.0,4.0,86,0.00,,,0.12,0.0,meteohub,2013-02-23 02:53:00,
2013-02-22 20:59:00,25.0,21.7,30.05,NW,326,1.0,4.0,87,0.00,,,0.12,0.0,meteohub,2013-02-23 02:59:00,
2013-02-22 21:05:00,24.8,21.6,30.05,NNE,21,2.0,4.0,87,0.00,,,0.12,0.0,meteohub,2013-02-23 03:05:00,
2013-02-22 21:11:00,24.8,21.6,30.04,NNW,329,2.0,5.0,87,0.00,,,0.12,0.0,meteohub,2013-02-23 03:11:00,
2013-02-22 21:17:00,24.6,21.4,30.05,NNW,330,1.0,5.0,87,0.00,,,0.12,0.0,meteohub,2013-02-23 03:17:00,
2013-02-22 21:22:00,24.6,21.4,30.04,NNW,333,0.0,5.0,87,0.00,,,0.12,0.0,meteohub,2013-02-23 03:22:00,
2013-02-22 21:28:00,24.6,21.4,30.05,NNW,333,1.0,5.0,87,0.00,,,0.12,0.0,meteohub,2013-02-23 03:28:00,
2013-02-22 21:34:00,24.4,21.2,30.05,NNW,327,0.0,4.0,87,0.00,,,0.12,0.0,meteohub,2013-02-23 03:34:00,
2013-02-22 21:40:00,24.4,21.2,30.05,NW,308,0.0,3.0,87,0.00,,,0.12,0.0,meteohub,2013-02-23 03:40:00,
2013-02-22 21:46:00,24.3,21.0,30.05,NW,308,1.0,3.0,87,0.00,,,0.12,0.0,meteohub,2013-02-23 03:46:00,
2013-02-22 21:53:00,24.1,20.8,30.05,NNW,344,1.0,3.0,87,0.00,,,0.12,0.0,meteohub,2013-02-23 03:53:00,
2013-02-22 21:59:00,23.9,20.7,30.05,NW,310,0.0,3.0,87,0.00,,,0.12,0.0,meteohub,2013-02-23 03:59:00,
2013-02-22 22:05:00,23.7,20.5,30.05,NW,310,0.0,4.0,87,0.00,,,0.12,0.0,meteohub,2013-02-23 04:05:00,
2013-02-22 22:11:00,23.5,20.3,30.05,NW,310,0.0,4.0,87,0.00,,,0.12,0.0,meteohub,2013-02-23 04:11:00,
2013-02-22 22:17:00,23.4,20.1,30.05,NW,310,0.0,2.0,87,0.00,,,0.12,0.0,meteohub,2013-02-23 04:17:00,
2013-02-22 22:24:00,23.2,20.1,30.04,NW,310,0.0,2.0,88,0.00,,,0.12,0.0,meteohub,2013-02-23 04:24:00,
2013-02-22 22:30:00,23.0,19.9,30.05,NW,310,0.0,1.0,88,0.00,,,0.12,0.0,meteohub,2013-02-23 04:30:00,
2013-02-22 22:36:00,22.8,19.8,30.05,NW,310,0.0,1.0,88,0.00,,,0.12,0.0,meteohub,2013-02-23 04:36:00,
2013-02-22 22:42:00,22.8,19.8,30.05,NW,310,0.0,1.0,88,0.00,,,0.12,0.0,meteohub,2013-02-23 04:42:00,
2013-02-22 22:48:00,22.8,20.1,30.05,NW,310,0.0,2.0,89,0.00,,,0.12,0.0,meteohub,2013-02-23 04:48:00,
2013-02-22 22:54:00,23.2,20.7,30.05,NW,310,0.0,2.0,90,0.00,,,0.12,0.0,meteohub,2013-02-23 04:54:00,
2013-02-22 23:01:00,23.4,20.8,30.05,West,265,3.0,3.0,90,0.00,,,0.12,0.0,meteohub,2013-02-23 05:01:00,
2013-02-22 23:05:00,23.5,20.8,30.05,West,265,0.0,2.0,89,0.00,,,0.12,0.0,meteohub,2013-02-23 05:05:00,
2013-02-22 23:11:00,23.4,20.7,30.05,West,265,0.0,3.0,89,0.00,,,0.12,0.0,meteohub,2013-02-23 05:11:00,
2013-02-22 23:17:00,23.4,20.7,30.05,West,263,1.0,3.0,89,0.00,,,0.12,0.0,meteohub,2013-02-23 05:17:00,
2013-02-22 23:23:00,23.4,20.7,30.05,SW,236,2.0,3.0,89,0.00,,,0.12,0.0,meteohub,2013-02-23 05:23:00,
2013-02-22 23:28:00,23.4,20.7,30.05,SW,236,0.0,3.0,89,0.00,,,0.12,0.0,meteohub,2013-02-23 05:28:00,
2013-02-22 23:34:00,23.4,20.7,30.05,WSW,240,0.0,3.0,89,0.00,,,0.12,0.0,meteohub,2013-02-23 05:34:00,
2013-02-22 23:40:00,23.5,20.8,30.04,West,262,1.0,5.0,89,0.00,,,0.12,0.0,meteohub,2013-02-23 05:40:00,
2013-02-22 23:46:00,23.5,20.8,30.04,West,259,2.0,5.0,89,0.00,,,0.12,0.0,meteohub,2013-02-23 05:46:00,
2013-02-22 23:52:00,23.5,20.8,30.05,WSW,257,1.0,5.0,89,0.00,,,0.12,0.0,meteohub,2013-02-23 05:52:00,
2013-02-22 23:58:00,23.7,21.0,30.05,SW,232,1.0,5.0,89,0.00,,,0.12,0.0,meteohub,2013-02-23 05:58:00,